createdAt,value
2023-04-04T00:02:02.207Z,-1.28
2023-04-04T00:07:03.534Z,-1.37
2023-04-04T00:12:05.081Z,-1.40
2023-04-04T00:17:08.145Z,-1.46
2023-04-04T00:22:09.822Z,-1.44
2023-04-04T00:27:11.256Z,-1.49
2023-04-04T00:32:12.771Z,-1.45
2023-04-04T00:37:14.099Z,-1.59
2023-04-04T00:42:15.422Z,-1.66
2023-04-04T00:47:16.753Z,-1.64
2023-04-04T00:52:18.083Z,-1.68
2023-04-04T00:57:19.478Z,-1.68
2023-04-04T01:02:20.839Z,-1.66
2023-04-04T01:07:22.204Z,-1.85
2023-04-04T01:12:23.936Z,-1.92
2023-04-04T01:17:26.221Z,-1.98
2023-04-04T01:22:29.746Z,-2.04
2023-04-04T01:27:31.439Z,-2.07
2023-04-04T01:32:50.387Z,-2.15
2023-04-04T01:38:15.780Z,-2.20
2023-04-04T01:43:17.259Z,-2.17
2023-04-04T01:48:18.603Z,-2.26
2023-04-04T01:53:19.999Z,-2.27
2023-04-04T01:58:22.228Z,-2.31
2023-04-04T02:03:23.543Z,-2.35
2023-04-04T02:08:24.861Z,-2.39
2023-04-04T02:13:26.266Z,-2.44
2023-04-04T02:18:27.637Z,-2.51
2023-04-04T02:23:29.204Z,-2.58
2023-04-04T02:28:31.360Z,-2.61
2023-04-04T02:33:32.766Z,-2.66
2023-04-04T02:38:34.151Z,-2.66
2023-04-04T02:43:35.691Z,-2.67
2023-04-04T02:48:37.029Z,-2.70
2023-04-04T02:53:38.340Z,-2.68
2023-04-04T02:58:41.451Z,-2.69
2023-04-04T03:03:43.003Z,-2.85
2023-04-04T03:08:44.454Z,-2.88
2023-04-04T03:13:46.432Z,-2.89
2023-04-04T03:18:48.019Z,-2.95
2023-04-04T03:23:49.332Z,-2.87
2023-04-04T03:28:50.918Z,-2.95
2023-04-04T03:33:52.257Z,-3.02
2023-04-04T03:38:53.581Z,-3.06
2023-04-04T03:43:54.876Z,-3.08
2023-04-04T03:48:57.008Z,-3.14
2023-04-04T03:53:58.335Z,-3.15
2023-04-04T03:58:59.774Z,-3.11
2023-04-04T04:04:01.625Z,-3.14
2023-04-04T04:09:03.267Z,-3.17
2023-04-04T04:14:05.090Z,-3.30
2023-04-04T04:19:06.711Z,-3.33
2023-04-04T04:24:08.286Z,-3.29
2023-04-04T04:29:09.602Z,-3.28
2023-04-04T04:34:10.968Z,-3.28
2023-04-04T04:39:12.280Z,-3.38
2023-04-04T04:44:13.586Z,-3.48
2023-04-04T04:49:14.929Z,-3.51
2023-04-04T04:54:16.300Z,-3.54
2023-04-04T04:59:17.636Z,-3.54
2023-04-04T05:04:18.980Z,-3.47
2023-04-04T05:09:20.304Z,-3.48
2023-04-04T05:14:21.626Z,-3.48
2023-04-04T05:19:23.023Z,-3.44
2023-04-04T05:24:24.402Z,-3.37
2023-04-04T05:29:26.013Z,-3.37
2023-04-04T05:34:27.329Z,-3.34
2023-04-04T05:39:28.849Z,-3.33
2023-04-04T05:44:30.201Z,-3.20
2023-04-04T05:49:31.554Z,-3.08
2023-04-04T05:54:32.892Z,-2.95
2023-04-04T05:59:34.224Z,-2.75
2023-04-04T06:04:35.608Z,-2.49
2023-04-04T06:09:36.924Z,-2.32
2023-04-04T06:14:38.283Z,-2.07
2023-04-04T06:19:39.943Z,-1.21
2023-04-04T06:24:41.351Z,1.73
2023-04-04T06:29:42.812Z,3.82
2023-04-04T06:34:44.191Z,4.59
2023-04-04T06:39:45.780Z,4.58
2023-04-04T06:44:47.118Z,4.48
2023-04-04T06:49:48.446Z,7.24
2023-04-04T06:54:50.160Z,6.70
2023-04-04T06:59:51.715Z,7.01
2023-04-04T07:04:53.090Z,6.95
2023-04-04T07:09:54.406Z,7.42
2023-04-04T07:14:55.709Z,9.29
2023-04-04T07:19:57.016Z,10.85
2023-04-04T07:24:58.367Z,9.88
2023-04-04T07:29:59.673Z,10.66
2023-04-04T07:35:01.289Z,10.79
2023-04-04T07:40:02.655Z,8.39
2023-04-04T07:45:04.148Z,8.64
2023-04-04T07:50:05.734Z,11.83
2023-04-04T07:55:07.542Z,10.63
2023-04-04T08:00:12.450Z,13.16
2023-04-04T08:05:13.833Z,13.43
2023-04-04T08:10:17.526Z,14.18
2023-04-04T08:15:19.119Z,14.84
2023-04-04T08:20:20.716Z,13.61
2023-04-04T08:25:22.079Z,13.75
2023-04-04T08:30:23.397Z,13.43
2023-04-04T08:35:24.735Z,14.83
2023-04-04T08:40:26.144Z,14.42
2023-04-04T08:45:28.149Z,14.29
2023-04-04T08:50:30.344Z,16.10
2023-04-04T08:55:31.914Z,14.61
2023-04-04T09:00:33.356Z,15.39
2023-04-04T09:05:35.391Z,15.76
2023-04-04T09:10:37.952Z,14.39
2023-04-04T09:15:42.139Z,15.01
2023-04-04T09:20:44.541Z,13.64
2023-04-04T09:26:03.125Z,16.30
2023-04-04T09:31:07.608Z,14.96
2023-04-04T09:36:11.038Z,16.16
2023-04-04T09:41:16.453Z,17.17
2023-04-04T09:46:21.380Z,17.97
2023-04-04T09:51:22.776Z,15.58
2023-04-04T09:56:24.081Z,13.54
2023-04-04T10:01:25.675Z,15.38
2023-04-04T10:06:27.103Z,16.59
2023-04-04T10:11:29.872Z,12.67
2023-04-04T10:16:37.619Z,15.18
2023-04-04T10:21:39.001Z,18.06
2023-04-04T10:26:40.598Z,13.63
2023-04-04T10:31:44.712Z,15.99
2023-04-04T10:36:50.262Z,16.72
2023-04-04T10:41:52.552Z,16.17
2023-04-04T10:46:54.707Z,16.48
2023-04-04T10:51:57.377Z,17.96
2023-04-04T10:57:02.230Z,16.38
2023-04-04T11:02:03.714Z,17.52
2023-04-04T11:07:09.420Z,15.26
2023-04-04T11:12:15.505Z,17.09
2023-04-04T11:17:16.819Z,16.96
2023-04-04T11:22:18.718Z,18.21
2023-04-04T11:27:20.759Z,16.42
2023-04-04T11:32:44.404Z,16.88
2023-04-04T11:37:53.437Z,14.73
2023-04-04T11:42:56.129Z,15.55
2023-04-04T11:47:58.092Z,16.12
2023-04-04T11:52:59.444Z,16.61
2023-04-04T11:58:12.946Z,16.81
2023-04-04T12:03:16.137Z,18.10
2023-04-04T12:08:17.949Z,15.94
2023-04-04T12:13:19.632Z,14.80
2023-04-04T12:18:22.174Z,15.98
2023-04-04T12:23:23.524Z,16.85
2023-04-04T12:28:27.024Z,16.21
2023-04-04T12:33:28.612Z,14.59
2023-04-04T12:38:31.364Z,14.97
2023-04-04T12:43:34.018Z,14.87
2023-04-04T12:48:36.758Z,13.13
2023-04-04T12:53:51.017Z,12.93
2023-04-04T12:58:52.873Z,12.63
2023-04-04T13:03:54.429Z,11.98
2023-04-04T13:08:56.223Z,12.16
2023-04-04T13:14:01.670Z,12.17
2023-04-04T13:19:03.495Z,12.58
2023-04-04T13:24:04.955Z,12.50
2023-04-04T13:29:06.530Z,12.65
2023-04-04T13:34:07.828Z,13.06
2023-04-04T13:39:09.145Z,12.31
2023-04-04T13:44:10.838Z,12.34
2023-04-04T13:49:12.246Z,12.47
2023-04-04T13:54:13.636Z,12.96
2023-04-04T13:59:15.029Z,12.74
2023-04-04T14:04:23.310Z,12.53
2023-04-04T14:09:25.360Z,12.63
2023-04-04T14:14:26.696Z,12.00
2023-04-04T14:19:28.107Z,12.50
2023-04-04T14:24:29.425Z,12.61
2023-04-04T14:29:31.245Z,11.76
2023-04-04T14:34:32.600Z,11.65
2023-04-04T14:39:33.959Z,12.00
2023-04-04T14:44:35.981Z,11.71
2023-04-04T14:49:37.316Z,11.69
2023-04-04T14:54:38.625Z,11.45
2023-04-04T14:59:39.961Z,10.61
2023-04-04T15:04:42.626Z,10.63
2023-04-04T15:09:43.982Z,10.86
2023-04-04T15:14:45.339Z,10.55
2023-04-04T15:19:46.762Z,10.21
2023-04-04T15:24:48.070Z,10.50
2023-04-04T15:29:52.033Z,10.44
2023-04-04T15:34:53.571Z,10.43
2023-04-04T15:39:54.889Z,10.33
2023-04-04T15:44:56.428Z,10.26
2023-04-04T15:49:57.776Z,9.91
2023-04-04T15:54:59.066Z,9.86
2023-04-04T16:00:00.437Z,10.02
2023-04-04T16:05:01.899Z,9.90
2023-04-04T16:10:03.705Z,9.87
2023-04-04T16:15:06.004Z,9.65
2023-04-04T16:20:07.600Z,9.58
2023-04-04T16:25:09.111Z,9.53
2023-04-04T16:30:10.681Z,9.54
2023-04-04T16:35:11.992Z,9.39
2023-04-04T16:40:14.804Z,9.26
2023-04-04T16:45:16.816Z,9.26
2023-04-04T16:50:18.160Z,9.19
2023-04-04T16:55:19.645Z,9.04
2023-04-04T17:00:22.187Z,8.86
2023-04-04T17:05:23.514Z,8.68
2023-04-04T17:10:24.906Z,8.55
2023-04-04T17:15:26.253Z,8.40
2023-04-04T17:20:29.824Z,8.25
2023-04-04T17:25:31.994Z,8.15
2023-04-04T17:30:33.411Z,8.03
2023-04-04T17:35:34.822Z,7.92
2023-04-04T17:40:36.508Z,7.70
2023-04-04T17:45:38.974Z,7.48
2023-04-04T17:50:40.572Z,7.37
2023-04-04T17:55:42.105Z,7.19
2023-04-04T18:00:43.900Z,7.04
2023-04-04T18:05:46.066Z,6.81
2023-04-04T18:10:47.392Z,6.60
2023-04-04T18:15:50.177Z,6.38
2023-04-04T18:20:54.296Z,6.37
2023-04-04T18:25:55.793Z,6.21
2023-04-04T18:30:58.307Z,5.97
2023-04-04T18:36:00.361Z,5.64
2023-04-04T18:41:01.757Z,5.48
2023-04-04T18:46:05.528Z,5.26
2023-04-04T18:51:07.937Z,5.08
2023-04-04T18:56:09.651Z,4.90
2023-04-04T19:01:11.836Z,4.72
2023-04-04T19:06:13.813Z,4.50
2023-04-04T19:11:15.702Z,4.30
2023-04-04T19:16:18.217Z,4.20
2023-04-04T19:21:19.557Z,4.15
2023-04-04T19:26:21.366Z,4.12
2023-04-04T19:31:24.484Z,4.13
2023-04-04T19:36:26.269Z,4.09
2023-04-04T19:41:37.840Z,4.13
2023-04-04T19:46:39.247Z,4.19
2023-04-04T19:51:42.683Z,4.07
2023-04-04T19:56:45.493Z,3.96
2023-04-04T20:01:59.728Z,4.31
2023-04-04T20:07:02.082Z,4.43
2023-04-04T20:12:03.600Z,4.18
2023-04-04T20:17:04.980Z,3.87
2023-04-04T20:22:06.661Z,3.63
2023-04-04T20:27:08.070Z,3.43
2023-04-04T20:32:09.611Z,3.41
2023-04-04T20:37:11.373Z,3.48
2023-04-04T20:42:31.092Z,3.51
2023-04-04T20:47:42.990Z,3.52
2023-04-04T20:52:49.439Z,3.46
2023-04-04T20:57:51.679Z,3.34
2023-04-04T21:02:53.077Z,3.13
2023-04-04T21:07:54.796Z,3.00
2023-04-04T21:12:56.812Z,3.06
2023-04-04T21:17:59.336Z,3.06
2023-04-04T21:23:00.921Z,2.97
2023-04-04T21:28:02.842Z,2.89
2023-04-04T21:33:05.508Z,2.87
2023-04-04T21:38:06.850Z,2.89
2023-04-04T21:43:08.159Z,2.84
2023-04-04T21:48:09.498Z,2.82
2023-04-04T21:53:10.847Z,2.74
2023-04-04T21:58:12.716Z,2.77
2023-04-04T22:03:14.542Z,2.63
2023-04-04T22:08:15.928Z,2.58
2023-04-04T22:13:18.664Z,2.58
2023-04-04T22:18:30.468Z,2.37
2023-04-04T22:23:38.078Z,2.15
2023-04-04T22:28:41.868Z,1.95
2023-04-04T22:33:43.308Z,1.86
2023-04-04T22:38:44.808Z,1.87
2023-04-04T22:43:46.120Z,1.93
2023-04-04T22:48:47.476Z,1.93
2023-04-04T22:53:48.793Z,1.86
2023-04-04T22:58:50.129Z,1.77
2023-04-04T23:03:51.490Z,1.68
2023-04-04T23:08:52.857Z,1.53
2023-04-04T23:13:54.164Z,1.28
2023-04-04T23:18:55.740Z,1.08
2023-04-04T23:23:57.658Z,0.99
2023-04-04T23:28:59.256Z,0.91
2023-04-04T23:34:00.693Z,0.72
2023-04-04T23:39:02.072Z,0.60
2023-04-04T23:44:03.467Z,0.49
2023-04-04T23:49:04.969Z,0.43
2023-04-04T23:54:12.060Z,0.38
2023-04-04T23:59:13.386Z,0.23
